createdAt,value
2022-10-12T00:02:06.274Z,3.95
2022-10-12T00:04:33.173Z,3.40
2022-10-12T00:06:59.948Z,3.88
2022-10-12T00:09:26.805Z,3.58
2022-10-12T00:11:53.541Z,3.88
2022-10-12T00:14:20.269Z,3.65
2022-10-12T00:16:47.075Z,3.58
2022-10-12T00:19:14.294Z,3.47
2022-10-12T00:21:41.258Z,3.42
2022-10-12T00:24:09.412Z,3.92
2022-10-12T00:26:36.397Z,3.90
2022-10-12T00:29:04.176Z,4.50
2022-10-12T00:31:31.770Z,3.67
2022-10-12T00:34:01.769Z,3.70
2022-10-12T00:36:32.518Z,3.70
2022-10-12T00:39:00.160Z,4.00
2022-10-12T00:41:30.568Z,3.70
2022-10-12T00:43:58.702Z,3.60
2022-10-12T00:46:42.128Z,3.70
2022-10-12T00:49:17.140Z,3.70
2022-10-12T00:51:48.026Z,3.90
2022-10-12T00:54:19.889Z,3.65
2022-10-12T00:56:48.185Z,4.22
2022-10-12T00:59:24.993Z,3.85
2022-10-12T01:01:51.962Z,3.75
2022-10-12T01:04:18.988Z,4.03
2022-10-12T01:06:45.880Z,3.58
2022-10-12T01:09:14.044Z,3.90
2022-10-12T01:11:40.821Z,3.95
2022-10-12T01:14:07.574Z,4.03
2022-10-12T01:16:59.102Z,4.07
2022-10-12T01:20:11.226Z,3.97
2022-10-12T01:22:48.010Z,3.88
2022-10-12T01:26:08.258Z,4.00
2022-10-12T01:28:35.074Z,3.90
2022-10-12T01:31:15.080Z,3.95
2022-10-12T01:33:48.015Z,4.00
2022-10-12T01:36:27.296Z,4.13
2022-10-12T01:39:03.719Z,4.15
2022-10-12T01:41:36.586Z,3.95
2022-10-12T01:44:03.657Z,4.22
2022-10-12T01:46:30.406Z,4.03
2022-10-12T01:49:00.009Z,4.10
2022-10-12T01:51:39.390Z,4.20
2022-10-12T01:54:18.741Z,3.55
2022-10-12T01:57:18.613Z,4.13
2022-10-12T02:00:03.020Z,4.22
2022-10-12T02:02:48.573Z,3.70
2022-10-12T02:05:21.220Z,4.18
2022-10-12T02:07:55.690Z,3.88
2022-10-12T02:10:33.309Z,3.42
2022-10-12T02:13:02.510Z,4.13
2022-10-12T02:15:31.648Z,3.75
2022-10-12T02:17:59.093Z,4.00
2022-10-12T02:20:27.438Z,3.92
2022-10-12T02:22:54.930Z,4.13
2022-10-12T02:25:25.973Z,3.42
2022-10-12T02:28:02.801Z,4.05
2022-10-12T02:30:35.058Z,4.28
2022-10-12T02:33:09.058Z,3.92
2022-10-12T02:35:45.549Z,3.85
2022-10-12T02:38:26.589Z,4.18
2022-10-12T02:41:05.631Z,4.22
2022-10-12T02:43:43.447Z,3.67
2022-10-12T02:46:11.697Z,3.92
2022-10-12T02:48:40.375Z,4.22
2022-10-12T02:51:09.673Z,4.47
2022-10-12T02:53:37.337Z,4.53
2022-10-12T02:56:12.944Z,4.13
2022-10-12T02:58:40.660Z,3.95
2022-10-12T03:01:07.660Z,4.18
2022-10-12T03:03:34.443Z,3.70
2022-10-12T03:06:01.466Z,3.78
2022-10-12T03:08:28.591Z,4.00
2022-10-12T03:10:55.333Z,3.70
2022-10-12T03:13:22.096Z,4.50
2022-10-12T03:15:48.893Z,4.28
2022-10-12T03:18:15.638Z,4.47
2022-10-12T03:20:42.395Z,4.30
2022-10-12T03:23:09.173Z,4.25
2022-10-12T03:25:35.922Z,4.28
2022-10-12T03:28:02.742Z,4.03
2022-10-12T03:30:29.792Z,4.10
2022-10-12T03:32:56.536Z,4.13
2022-10-12T03:35:23.516Z,4.28
2022-10-12T03:37:50.289Z,3.80
2022-10-12T03:40:17.086Z,4.05
2022-10-12T03:42:43.839Z,4.35
2022-10-12T03:45:11.040Z,4.47
2022-10-12T03:47:38.264Z,4.85
2022-10-12T03:50:06.448Z,4.10
2022-10-12T03:52:33.381Z,4.22
2022-10-12T03:55:00.172Z,4.38
2022-10-12T03:57:26.954Z,4.38
2022-10-12T03:59:53.720Z,4.47
2022-10-12T04:02:20.493Z,4.90
2022-10-12T04:04:47.245Z,4.18
2022-10-12T04:07:15.697Z,4.65
2022-10-12T04:09:42.450Z,4.03
2022-10-12T04:12:09.278Z,4.22
2022-10-12T04:14:36.074Z,4.07
2022-10-12T04:17:04.039Z,4.10
2022-10-12T04:19:30.819Z,4.40
2022-10-12T04:21:57.650Z,4.50
2022-10-12T04:24:24.538Z,4.72
2022-10-12T04:26:51.386Z,4.13
2022-10-12T04:29:18.214Z,4.25
2022-10-12T04:31:45.043Z,4.50
2022-10-12T04:34:11.876Z,4.32
2022-10-12T04:36:39.410Z,4.60
2022-10-12T04:39:06.283Z,4.63
2022-10-12T04:41:33.051Z,4.32
2022-10-12T04:43:59.893Z,4.13
2022-10-12T04:46:26.802Z,4.63
2022-10-12T04:48:53.557Z,4.43
2022-10-12T04:51:20.372Z,4.70
2022-10-12T04:53:47.143Z,4.18
2022-10-12T04:56:14.024Z,4.60
2022-10-12T04:58:40.847Z,4.15
2022-10-12T05:01:07.658Z,4.55
2022-10-12T05:03:38.224Z,4.40
2022-10-12T05:06:08.082Z,4.13
2022-10-12T05:08:35.005Z,3.85
2022-10-12T05:11:01.917Z,4.20
2022-10-12T05:13:29.893Z,3.80
2022-10-12T05:15:57.165Z,4.40
2022-10-12T05:18:24.570Z,3.80
2022-10-12T05:20:56.663Z,3.80
2022-10-12T05:23:24.022Z,4.40
2022-10-12T05:25:50.831Z,4.72
2022-10-12T05:28:17.608Z,4.18
2022-10-12T05:30:44.488Z,3.95
2022-10-12T05:33:11.300Z,3.97
2022-10-12T05:35:38.133Z,3.88
2022-10-12T05:38:05.051Z,3.63
2022-10-12T05:40:31.820Z,4.30
2022-10-12T05:42:58.637Z,4.15
2022-10-12T05:45:25.531Z,4.00
2022-10-12T05:47:52.303Z,3.75
2022-10-12T05:50:19.215Z,4.30
2022-10-12T05:52:46.142Z,3.90
2022-10-12T05:55:13.486Z,3.67
2022-10-12T05:57:40.706Z,4.13
2022-10-12T06:00:08.758Z,4.40
2022-10-12T06:02:36.272Z,3.92
2022-10-12T06:05:03.605Z,3.95
2022-10-12T06:07:30.599Z,3.67
2022-10-12T06:09:57.332Z,4.03
2022-10-12T06:12:24.315Z,3.92
2022-10-12T06:14:52.165Z,3.80
2022-10-12T06:17:18.966Z,4.13
2022-10-12T06:19:46.068Z,4.28
2022-10-12T06:22:14.098Z,4.13
2022-10-12T06:24:40.857Z,3.65
2022-10-12T06:27:07.688Z,3.95
2022-10-12T06:29:35.837Z,4.32
2022-10-12T06:32:02.666Z,3.92
2022-10-12T06:34:29.682Z,4.38
2022-10-12T06:37:00.922Z,4.18
2022-10-12T06:39:28.638Z,3.92
2022-10-12T06:41:55.390Z,4.45
2022-10-12T06:44:22.547Z,4.03
2022-10-12T06:46:50.349Z,3.83
2022-10-12T06:49:17.922Z,4.18
2022-10-12T06:51:44.678Z,3.83
2022-10-12T06:54:11.544Z,3.90
2022-10-12T06:56:39.642Z,4.30
2022-10-12T06:59:06.873Z,3.95
2022-10-12T07:01:33.700Z,4.40
2022-10-12T07:04:01.104Z,4.35
2022-10-12T07:06:27.936Z,4.10
2022-10-12T07:08:55.082Z,4.30
2022-10-12T07:11:22.666Z,4.55
2022-10-12T07:13:49.570Z,4.40
2022-10-12T07:16:16.479Z,4.28
2022-10-12T07:18:43.294Z,4.82
2022-10-12T07:21:10.190Z,4.35
2022-10-12T07:23:42.401Z,4.50
2022-10-12T07:26:11.991Z,4.63
2022-10-12T07:28:38.861Z,4.50
2022-10-12T07:31:07.821Z,4.50
2022-10-12T07:33:35.643Z,4.32
2022-10-12T07:36:21.762Z,4.95
2022-10-12T07:38:49.496Z,4.90
2022-10-12T07:41:16.981Z,4.75
2022-10-12T07:43:43.886Z,4.72
2022-10-12T07:46:11.634Z,4.55
2022-10-12T07:48:40.207Z,5.10
2022-10-12T07:51:09.414Z,5.00
2022-10-12T07:53:38.514Z,5.10
2022-10-12T07:56:07.425Z,4.40
2022-10-12T07:58:34.236Z,4.60
2022-10-12T08:01:09.183Z,4.25
2022-10-12T08:03:36.409Z,4.47
2022-10-12T08:06:14.507Z,4.10
2022-10-12T08:08:41.890Z,3.70
2022-10-12T08:11:09.550Z,4.55
2022-10-12T08:13:37.495Z,4.32
2022-10-12T08:16:06.417Z,5.38
2022-10-12T08:18:33.399Z,4.40
2022-10-12T08:21:00.542Z,3.92
2022-10-12T08:23:27.760Z,4.10
2022-10-12T08:25:56.540Z,4.65
2022-10-12T08:28:24.657Z,4.47
2022-10-12T08:30:52.731Z,4.32
2022-10-12T08:33:19.883Z,3.95
2022-10-12T08:35:47.814Z,4.85
2022-10-12T08:38:15.501Z,4.38
2022-10-12T08:40:59.693Z,4.30
2022-10-12T08:43:32.696Z,4.50
2022-10-12T08:46:02.645Z,4.07
2022-10-12T08:48:55.176Z,4.30
2022-10-12T08:51:25.551Z,3.80
2022-10-12T08:53:55.627Z,3.88
2022-10-12T08:56:22.714Z,4.50
2022-10-12T08:58:51.553Z,3.95
2022-10-12T09:01:32.183Z,3.67
2022-10-12T09:04:17.381Z,3.97
2022-10-12T09:07:09.638Z,3.85
2022-10-12T09:09:41.391Z,3.83
2022-10-12T09:12:29.362Z,4.18
2022-10-12T09:15:01.480Z,3.83
2022-10-12T09:17:38.427Z,3.90
2022-10-12T09:20:40.876Z,3.78
2022-10-12T09:23:16.449Z,3.83
2022-10-12T09:25:43.448Z,3.97
2022-10-12T09:28:40.453Z,4.10
2022-10-12T09:31:10.590Z,3.97
2022-10-12T09:33:48.939Z,4.15
2022-10-12T09:36:21.222Z,3.53
2022-10-12T09:38:49.522Z,3.75
2022-10-12T09:41:23.919Z,3.55
2022-10-12T09:43:59.909Z,4.10
2022-10-12T09:46:37.242Z,3.85
2022-10-12T09:49:04.094Z,4.05
2022-10-12T09:51:32.501Z,3.53
2022-10-12T09:54:03.488Z,3.40
2022-10-12T09:56:39.740Z,3.67
2022-10-12T09:59:20.429Z,3.53
2022-10-12T10:02:16.530Z,3.17
2022-10-12T10:04:45.294Z,3.08
2022-10-12T10:07:33.390Z,3.40
2022-10-12T10:10:13.498Z,3.53
2022-10-12T10:12:52.740Z,3.97
2022-10-12T10:15:29.881Z,3.40
2022-10-12T10:18:19.460Z,3.00
2022-10-12T10:20:56.920Z,3.40
2022-10-12T10:23:28.401Z,3.90
2022-10-12T10:25:59.170Z,3.45
2022-10-12T10:28:30.024Z,3.80
2022-10-12T10:31:03.326Z,3.60
2022-10-12T10:33:36.472Z,3.33
2022-10-12T10:36:20.327Z,3.20
2022-10-12T10:38:58.031Z,3.85
2022-10-12T10:41:28.855Z,3.67
2022-10-12T10:43:55.885Z,3.75
2022-10-12T10:46:25.829Z,3.40
2022-10-12T10:49:01.439Z,3.75
2022-10-12T10:51:50.289Z,3.33
2022-10-12T10:54:30.810Z,3.15
2022-10-12T10:57:22.980Z,3.33
2022-10-12T11:00:26.473Z,3.38
2022-10-12T11:03:02.088Z,3.00
2022-10-12T11:05:39.874Z,3.80
2022-10-12T11:08:17.164Z,3.40
2022-10-12T11:11:00.999Z,3.40
2022-10-12T11:13:46.724Z,3.63
2022-10-12T11:16:22.451Z,3.27
2022-10-12T11:18:57.671Z,3.42
2022-10-12T11:21:35.423Z,3.40
2022-10-12T11:24:12.824Z,3.63
2022-10-12T11:27:12.140Z,3.40
2022-10-12T11:29:39.450Z,3.30
2022-10-12T11:32:15.188Z,3.30
2022-10-12T11:35:03.765Z,3.40
2022-10-12T11:37:42.107Z,3.17
2022-10-12T11:40:47.662Z,3.53
2022-10-12T11:43:16.817Z,3.08
2022-10-12T11:45:49.456Z,3.33
2022-10-12T11:48:31.848Z,2.97
2022-10-12T11:51:03.818Z,3.40
2022-10-12T11:53:40.296Z,3.40
2022-10-12T11:56:27.686Z,3.50
2022-10-12T11:59:04.148Z,3.20
2022-10-12T12:02:08.842Z,3.58
2022-10-12T12:04:42.194Z,3.65
2022-10-12T12:07:38.030Z,3.40
2022-10-12T12:10:34.912Z,3.05
2022-10-12T12:13:15.295Z,3.30
2022-10-12T12:15:49.784Z,3.88
2022-10-12T12:18:33.463Z,3.25
2022-10-12T12:21:03.064Z,3.50
2022-10-12T12:23:43.394Z,3.53
2022-10-12T12:26:15.747Z,3.13
2022-10-12T12:28:49.421Z,3.50
2022-10-12T12:31:24.705Z,4.03
2022-10-12T12:34:02.219Z,3.10
2022-10-12T12:36:42.261Z,3.67
2022-10-12T12:39:32.043Z,3.00
2022-10-12T12:42:04.139Z,3.22
2022-10-12T12:44:42.686Z,3.83
2022-10-12T12:47:39.945Z,3.00
2022-10-12T12:50:31.508Z,3.58
2022-10-12T12:53:20.951Z,3.20
2022-10-12T12:56:06.364Z,3.22
2022-10-12T12:58:43.871Z,2.85
2022-10-12T13:01:25.488Z,3.10
2022-10-12T13:04:11.095Z,3.33
2022-10-12T13:07:09.311Z,3.28
2022-10-12T13:09:45.456Z,3.35
2022-10-12T13:15:12.954Z,2.72
2022-10-12T13:17:54.768Z,2.60
2022-10-12T13:20:25.420Z,3.35
2022-10-12T13:22:55.294Z,2.85
2022-10-12T13:25:54.828Z,3.38
2022-10-12T13:28:31.191Z,2.70
2022-10-12T13:31:07.870Z,2.90
2022-10-12T13:33:45.405Z,2.40
2022-10-12T13:36:28.349Z,2.90
2022-10-12T13:39:06.868Z,2.95
2022-10-12T13:41:35.012Z,2.70
2022-10-12T13:44:04.939Z,3.03
2022-10-12T13:46:48.547Z,2.88
2022-10-12T13:49:41.583Z,2.80
2022-10-12T13:52:11.373Z,3.00
2022-10-12T13:54:40.087Z,2.88
2022-10-12T13:57:31.750Z,2.95
2022-10-12T14:00:03.746Z,2.90
2022-10-12T14:02:32.275Z,3.10
2022-10-12T14:05:02.631Z,2.78
2022-10-12T14:07:34.703Z,2.63
2022-10-12T14:10:16.290Z,3.00
2022-10-12T14:12:46.050Z,3.28
2022-10-12T14:15:14.941Z,2.88
2022-10-12T14:17:44.596Z,2.70
2022-10-12T14:20:39.145Z,3.00
2022-10-12T14:23:19.585Z,3.00
2022-10-12T14:25:54.848Z,2.63
2022-10-12T14:28:32.792Z,2.87
2022-10-12T14:30:59.664Z,2.85
2022-10-12T14:33:27.804Z,2.70
2022-10-12T14:36:14.883Z,3.00
2022-10-12T14:38:43.151Z,2.65
2022-10-12T14:41:28.786Z,3.05
2022-10-12T14:44:13.853Z,2.63
2022-10-12T14:46:54.542Z,2.78
2022-10-12T14:49:44.191Z,2.75
2022-10-12T14:52:22.803Z,2.40
2022-10-12T14:57:22.745Z,2.80
2022-10-12T14:59:50.097Z,2.72
2022-10-12T15:02:21.657Z,2.72
2022-10-12T15:04:49.266Z,2.97
2022-10-12T15:07:17.752Z,3.05
2022-10-12T15:09:44.974Z,2.90
2022-10-12T15:12:14.498Z,2.45
2022-10-12T15:14:42.278Z,2.83
2022-10-12T15:17:12.278Z,2.30
2022-10-12T15:19:39.459Z,2.78
2022-10-12T15:22:06.898Z,2.80
2022-10-12T15:24:34.040Z,2.70
2022-10-12T15:27:00.979Z,2.50
2022-10-12T15:29:27.882Z,2.95
2022-10-12T15:31:54.714Z,2.40
2022-10-12T15:34:21.615Z,2.72
2022-10-12T15:36:49.598Z,2.50
2022-10-12T15:39:16.659Z,2.97
2022-10-12T15:41:43.746Z,2.30
2022-10-12T15:44:14.004Z,2.40
2022-10-12T15:46:42.293Z,3.03
2022-10-12T15:49:09.889Z,2.67
2022-10-12T15:51:41.011Z,2.75
2022-10-12T15:54:08.003Z,2.38
2022-10-12T15:56:34.928Z,2.78
2022-10-12T15:59:01.918Z,2.63
2022-10-12T16:01:29.182Z,2.80
2022-10-12T16:03:56.288Z,2.95
2022-10-12T16:06:23.285Z,3.00
2022-10-12T16:08:50.138Z,2.78
2022-10-12T16:11:18.107Z,2.92
2022-10-12T16:13:51.009Z,3.38
2022-10-12T16:16:20.779Z,3.00
2022-10-12T16:18:47.680Z,3.33
2022-10-12T16:21:14.664Z,3.03
2022-10-12T16:23:41.633Z,3.38
2022-10-12T16:26:11.852Z,3.10
2022-10-12T16:28:38.826Z,3.10
2022-10-12T16:31:15.366Z,3.25
2022-10-12T16:33:42.228Z,2.80
2022-10-12T16:36:11.537Z,2.67
2022-10-12T16:38:38.454Z,3.10
2022-10-12T16:41:10.063Z,3.03
2022-10-12T16:43:37.188Z,2.70
2022-10-12T16:46:04.383Z,2.90
2022-10-12T16:48:31.993Z,3.25
2022-10-12T16:50:58.954Z,2.97
2022-10-12T16:53:25.901Z,3.05
2022-10-12T16:55:52.820Z,2.53
2022-10-12T16:58:19.788Z,2.95
2022-10-12T17:00:46.727Z,3.30
2022-10-12T17:03:14.207Z,3.28
2022-10-12T17:05:42.107Z,3.53
2022-10-12T17:08:14.748Z,3.45
2022-10-12T17:10:43.948Z,3.58
2022-10-12T17:13:13.254Z,3.88
2022-10-12T17:15:41.582Z,3.42
2022-10-12T17:18:08.772Z,3.10
2022-10-12T17:20:36.641Z,3.38
2022-10-12T17:23:03.990Z,3.90
2022-10-12T17:25:30.857Z,3.30
2022-10-12T17:27:57.739Z,3.40
2022-10-12T17:30:24.533Z,3.40
2022-10-12T17:32:51.478Z,3.00
2022-10-12T17:35:18.401Z,3.22
2022-10-12T17:37:45.272Z,3.50
2022-10-12T17:40:12.245Z,3.40
2022-10-12T17:42:39.032Z,3.08
2022-10-12T17:45:06.393Z,3.45
2022-10-12T17:47:33.157Z,3.42
2022-10-12T17:49:59.979Z,3.40
2022-10-12T17:52:26.850Z,3.15
2022-10-12T17:54:53.698Z,3.33
2022-10-12T17:57:20.945Z,3.30
2022-10-12T17:59:47.933Z,3.30
2022-10-12T18:02:14.729Z,3.63
2022-10-12T18:04:41.565Z,2.72
2022-10-12T18:07:08.367Z,3.20
2022-10-12T18:09:35.179Z,3.25
2022-10-12T18:12:01.961Z,3.47
2022-10-12T18:14:29.297Z,3.22
2022-10-12T18:16:57.629Z,3.00
2022-10-12T18:19:25.033Z,2.88
2022-10-12T18:21:51.831Z,3.03
2022-10-12T18:24:20.606Z,3.08
2022-10-12T18:26:47.862Z,3.70
2022-10-12T18:29:15.201Z,3.08
2022-10-12T18:31:42.004Z,2.90
2022-10-12T18:34:09.249Z,3.03
2022-10-12T18:36:36.437Z,3.30
2022-10-12T18:39:04.224Z,3.50
2022-10-12T18:41:32.526Z,3.30
2022-10-12T18:44:00.777Z,3.22
2022-10-12T18:46:29.327Z,3.40
2022-10-12T18:48:56.482Z,3.50
2022-10-12T18:51:28.869Z,3.40
2022-10-12T18:53:57.057Z,3.10
2022-10-12T18:56:24.111Z,3.22
2022-10-12T18:58:50.942Z,3.10
2022-10-12T19:01:23.325Z,2.88
2022-10-12T19:03:51.038Z,2.83
2022-10-12T19:06:20.751Z,3.42
2022-10-12T19:08:48.092Z,3.00
2022-10-12T19:11:17.441Z,3.05
2022-10-12T19:13:50.707Z,2.90
2022-10-12T19:16:17.932Z,2.85
2022-10-12T19:18:44.751Z,3.20
2022-10-12T19:21:17.991Z,3.22
2022-10-12T19:23:45.434Z,3.00
2022-10-12T19:26:18.247Z,3.00
2022-10-12T19:28:46.519Z,2.75
2022-10-12T19:31:18.932Z,3.00
2022-10-12T19:33:46.333Z,2.95
2022-10-12T19:36:15.013Z,3.20
2022-10-12T19:38:41.906Z,3.40
2022-10-12T19:41:09.486Z,3.10
2022-10-12T19:43:37.706Z,3.15
2022-10-12T19:46:07.527Z,3.42
2022-10-12T19:48:35.256Z,2.83
2022-10-12T19:51:06.048Z,2.78
2022-10-12T19:53:33.485Z,3.20
2022-10-12T19:56:02.559Z,2.92
2022-10-12T19:58:29.405Z,2.58
2022-10-12T20:01:04.013Z,3.13
2022-10-12T20:03:31.245Z,2.83
2022-10-12T20:05:58.671Z,3.20
2022-10-12T20:08:25.863Z,2.85
2022-10-12T20:10:53.639Z,2.75
2022-10-12T20:13:20.466Z,3.10
2022-10-12T20:15:50.967Z,3.60
2022-10-12T20:18:17.816Z,3.00
2022-10-12T20:20:44.665Z,3.03
2022-10-12T20:23:11.572Z,3.17
2022-10-12T20:25:49.846Z,2.90
2022-10-12T20:28:18.032Z,2.70
2022-10-12T20:30:46.522Z,3.42
2022-10-12T20:33:13.929Z,3.28
2022-10-12T20:35:48.827Z,3.75
2022-10-12T20:38:17.288Z,3.03
2022-10-12T20:40:45.842Z,3.50
2022-10-12T20:43:16.030Z,3.20
2022-10-12T20:45:42.819Z,3.47
2022-10-12T20:48:09.642Z,3.40
2022-10-12T20:50:37.368Z,3.70
2022-10-12T20:53:04.185Z,3.03
2022-10-12T20:55:31.001Z,3.55
2022-10-12T20:57:57.820Z,3.40
2022-10-12T21:00:24.648Z,3.63
2022-10-12T21:02:51.462Z,3.47
2022-10-12T21:05:18.254Z,3.28
2022-10-12T21:07:46.225Z,3.70
2022-10-12T21:10:13.028Z,4.03
2022-10-12T21:12:39.792Z,3.20
2022-10-12T21:15:06.985Z,3.63
2022-10-12T21:17:33.820Z,3.40
2022-10-12T21:20:00.576Z,3.47
2022-10-12T21:22:27.454Z,3.22
2022-10-12T21:24:54.230Z,3.38
2022-10-12T21:27:21.080Z,3.17
2022-10-12T21:29:47.869Z,3.70
2022-10-12T21:32:14.717Z,3.50
2022-10-12T21:34:41.467Z,3.50
2022-10-12T21:37:08.210Z,3.70
2022-10-12T21:39:35.028Z,3.35
2022-10-12T21:42:01.772Z,3.03
2022-10-12T21:44:28.754Z,3.60
2022-10-12T21:46:55.533Z,3.47
2022-10-12T21:49:22.301Z,3.88
2022-10-12T21:51:49.087Z,3.70
2022-10-12T21:54:15.904Z,3.63
2022-10-12T21:56:42.734Z,3.97
2022-10-12T21:59:09.852Z,3.70
2022-10-12T22:01:38.871Z,4.93
2022-10-12T22:04:08.335Z,3.67
2022-10-12T22:06:35.352Z,3.38
2022-10-12T22:09:05.762Z,3.47
2022-10-12T22:11:35.411Z,3.55
2022-10-12T22:14:12.468Z,3.80
2022-10-12T22:16:40.101Z,3.92
2022-10-12T22:19:08.391Z,3.58
2022-10-12T22:21:36.422Z,3.53
2022-10-12T22:24:03.804Z,3.80
2022-10-12T22:26:31.104Z,3.70
2022-10-12T22:29:00.004Z,3.15
2022-10-12T22:31:26.956Z,3.55
2022-10-12T22:33:54.649Z,3.92
2022-10-12T22:36:21.532Z,3.65
2022-10-12T22:38:48.376Z,3.83
2022-10-12T22:41:22.866Z,3.17
2022-10-12T22:43:55.363Z,4.28
2022-10-12T22:46:24.767Z,4.00
2022-10-12T22:48:52.067Z,3.10
2022-10-12T22:51:34.388Z,3.47
2022-10-12T22:54:01.879Z,3.72
2022-10-12T22:56:29.308Z,3.42
2022-10-12T22:59:04.015Z,3.58
2022-10-12T23:01:30.825Z,3.72
2022-10-12T23:03:57.636Z,3.25
2022-10-12T23:06:25.203Z,4.03
2022-10-12T23:08:52.363Z,3.58
2022-10-12T23:11:21.920Z,3.70
2022-10-12T23:13:49.125Z,3.80
2022-10-12T23:16:20.267Z,3.53
2022-10-12T23:18:47.427Z,3.75
2022-10-12T23:21:17.024Z,3.60
2022-10-12T23:23:45.292Z,3.45
2022-10-12T23:26:13.869Z,3.50
2022-10-12T23:28:40.868Z,3.58
2022-10-12T23:31:10.275Z,3.45
2022-10-12T23:33:37.133Z,3.45
2022-10-12T23:36:07.283Z,3.80
2022-10-12T23:38:36.007Z,3.08
2022-10-12T23:41:04.651Z,3.25
2022-10-12T23:43:32.232Z,3.53
2022-10-12T23:45:59.047Z,3.10
2022-10-12T23:48:26.678Z,3.63
2022-10-12T23:50:53.742Z,3.55
2022-10-12T23:53:22.121Z,3.42
2022-10-12T23:55:49.399Z,3.03
2022-10-12T23:58:16.389Z,3.15
